CheckWX is a tool to help pilots better visualize weather data.  It is not intended as a substitute for an official pre-flight weather briefing.

18:03:10 UTC

URMM TAF
Mineralnyye Vody Airport
Mineralnyye Vody, Russian Federation
TAF URMM 171659Z 1718/1818 27005G10MPS 9999 BKN015 TX07/1812Z TN02/1803Z BECMG 1800/1802 29009G18MPS TEMPO 1803/1818 30017G27MPS 5000 -SN OVC015

Feb-17@
18:00 UTC

Feb-17 @ 18:00 UTC

Feb-18@
00:00 UTC

Feb-18 @ 00:00 UTC

TAF URMM 171659Z 1718/1818 27005G10MPS 9999 BKN015 TX07/1812Z TN02/1803Z
Wind
  • 270° at 10 KTS
  • {Gusting to 19 KTS
Visibility
10,000+ meters
Cloud Levels
  • Broken at 1,500' AGL

Feb-18@
00:00 UTC

Feb-18 @ 00:00 UTC

Feb-18@
18:00 UTC

Feb-18 @ 18:00 UTC

BECMG 1800/1802 29009G18MPS

Becoming

BecomingConditions expected by Mon, Feb 18, 2019 @ 02:00 UTC

Wind
  • 290° at 17 KTS
  • {Gusting to 35 KTS
Visibility
10,000+ meters
Cloud Levels
  • Broken at 1,500' AGL

Feb-18@
03:00 UTC

Feb-18 @ 03:00 UTC

Feb-18@
18:00 UTC

Feb-18 @ 18:00 UTC

TEMPO 1803/1818 30017G27MPS 5000 -SN OVC015

Temporary

TemporaryChanges expected for less than half the time period

Wind
  • 300° at 33 KTS
  • {Gusting to 52 KTS
Visibility
5,005 meters
Conditions
Light Snow
Cloud Levels
  • Overcast at 1,500' AGL